Ambridge, Pennsylvania
Current Conditions -  °F | °C
As of 1:51 PM on Thursday 30 Oct 2014 (Local Time) from KPIT Reporting Station
Overcast Overcast  
Wind Chill: 48°   Ceiling: 4100
Heat Index: 48°   Visibility: 10mi
Dew Point: 37°   Wind: 3mph
Humidity: 66%   Direction: 300°WNW
Pressure: 30.08"   Gusts: NA
Location:  40.59°N, 80.23°W
Report Text: KPIT 301751Z 30003KT 10SM FEW025 OVC041 09/03 A3008 RMK AO2 SLP198 BINOVC T00890028 10100 20022 58007
Loading
Personal Weather Stations






























Interactive Weather Map New forecast layout! Learn more

10-Day Weather Forecast

Advertisements
Track Severe Weather on mobile